createdAt,value
2023-03-07T00:00:16.741Z,18.87
2023-03-07T00:02:44.080Z,20.07
2023-03-07T00:05:12.467Z,18.10
2023-03-07T00:07:39.955Z,20.53
2023-03-07T00:10:07.675Z,19.63
2023-03-07T00:12:35.222Z,18.43
2023-03-07T00:15:02.772Z,18.30
2023-03-07T00:17:30.327Z,19.47
2023-03-07T00:19:57.744Z,19.83
2023-03-07T00:22:25.226Z,20.10
2023-03-07T00:24:52.609Z,21.20
2023-03-07T00:27:20.084Z,19.73
2023-03-07T00:29:48.911Z,20.87
2023-03-07T00:32:16.504Z,19.33
2023-03-07T00:34:43.992Z,20.30
2023-03-07T00:37:11.347Z,21.50
2023-03-07T00:39:38.738Z,20.13
2023-03-07T00:42:06.161Z,20.07
2023-03-07T00:44:33.747Z,21.93
2023-03-07T00:47:02.476Z,21.13
2023-03-07T00:49:30.927Z,20.30
2023-03-07T00:51:58.562Z,22.27
2023-03-07T00:54:26.489Z,24.00
2023-03-07T00:56:54.126Z,24.27
2023-03-07T00:59:21.685Z,23.97
2023-03-07T01:01:49.345Z,22.73
2023-03-07T01:04:17.123Z,21.87
2023-03-07T01:06:44.776Z,24.37
2023-03-07T01:09:12.333Z,23.73
2023-03-07T01:11:39.920Z,22.00
2023-03-07T01:14:08.765Z,22.40
2023-03-07T01:16:37.534Z,22.97
2023-03-07T01:19:07.230Z,26.47
2023-03-07T01:21:39.304Z,21.87
2023-03-07T01:24:07.855Z,24.60
2023-03-07T01:26:35.787Z,20.77
2023-03-07T01:29:04.359Z,24.00
2023-03-07T01:31:35.219Z,22.30
2023-03-07T01:34:03.378Z,22.80
2023-03-07T01:36:34.485Z,22.47
2023-03-07T01:39:10.553Z,23.60
2023-03-07T01:41:41.891Z,24.60
2023-03-07T01:44:18.949Z,23.10
2023-03-07T01:46:48.815Z,23.47
2023-03-07T01:49:19.654Z,24.80
2023-03-07T01:51:50.261Z,22.80
2023-03-07T01:54:21.442Z,23.30
2023-03-07T01:56:49.802Z,26.10
2023-03-07T01:59:19.729Z,23.30
2023-03-07T02:01:48.652Z,26.27
2023-03-07T02:04:18.498Z,24.63
2023-03-07T02:06:45.992Z,23.83
2023-03-07T02:09:17.208Z,24.67
2023-03-07T02:11:45.577Z,25.33
2023-03-07T02:14:13.862Z,24.77
2023-03-07T02:16:42.012Z,24.23
2023-03-07T02:19:33.237Z,24.77
2023-03-07T02:22:04.819Z,24.00
2023-03-07T02:24:51.006Z,23.40
2023-03-07T02:27:18.480Z,24.07
2023-03-07T02:29:46.295Z,24.37
2023-03-07T02:32:14.880Z,22.70
2023-03-07T02:34:42.472Z,22.80
2023-03-07T02:37:21.396Z,23.50
2023-03-07T02:39:50.940Z,23.43
2023-03-07T02:42:22.876Z,21.93
2023-03-07T02:44:59.855Z,24.07
2023-03-07T02:47:30.342Z,24.40
2023-03-07T02:49:58.988Z,23.37
2023-03-07T02:52:28.718Z,23.40
2023-03-07T02:55:00.223Z,22.30
2023-03-07T02:57:32.146Z,21.10
2023-03-07T03:00:00.512Z,20.77
2023-03-07T03:02:28.217Z,23.30
2023-03-07T03:04:55.822Z,23.10
2023-03-07T03:07:24.089Z,22.70
2023-03-07T03:09:51.535Z,20.73
2023-03-07T03:12:19.067Z,21.63
2023-03-07T03:14:46.575Z,22.30
2023-03-07T03:17:14.107Z,20.97
2023-03-07T03:19:42.282Z,21.83
2023-03-07T03:22:12.203Z,23.63
2023-03-07T03:24:43.567Z,20.70
2023-03-07T03:27:14.529Z,20.20
2023-03-07T03:29:44.948Z,20.50
2023-03-07T03:32:13.362Z,20.67
2023-03-07T03:34:43.617Z,20.17
2023-03-07T03:37:11.034Z,18.60
2023-03-07T03:39:38.515Z,17.63
2023-03-07T03:42:06.342Z,19.40
2023-03-07T03:44:33.979Z,19.70
2023-03-07T03:47:01.945Z,18.80
2023-03-07T03:49:29.882Z,20.80
2023-03-07T03:51:57.321Z,18.37
2023-03-07T03:54:25.245Z,18.80
2023-03-07T03:56:54.728Z,17.83
2023-03-07T03:59:22.451Z,16.93
2023-03-07T04:01:50.774Z,20.20
2023-03-07T04:04:19.815Z,16.53
2023-03-07T04:06:48.313Z,17.57
2023-03-07T04:09:15.792Z,16.57
2023-03-07T04:11:46.709Z,17.57
2023-03-07T04:14:14.144Z,16.90
2023-03-07T04:16:42.091Z,14.63
2023-03-07T04:19:12.920Z,17.90
2023-03-07T04:21:41.026Z,15.87
2023-03-07T04:24:09.186Z,15.90
2023-03-07T04:26:37.071Z,16.50
2023-03-07T04:29:04.584Z,16.67
2023-03-07T04:31:35.727Z,16.97
2023-03-07T04:34:04.802Z,16.23
2023-03-07T04:36:32.370Z,16.80
2023-03-07T04:38:59.568Z,16.00
2023-03-07T04:41:27.183Z,16.70
2023-03-07T04:44:04.580Z,16.80
2023-03-07T04:46:31.744Z,15.90
2023-03-07T04:48:58.886Z,16.00
2023-03-07T04:51:26.177Z,17.10
2023-03-07T04:53:53.400Z,17.90
2023-03-07T04:56:20.668Z,16.87
2023-03-07T04:58:49.206Z,17.60
2023-03-07T05:01:18.455Z,17.30
2023-03-07T05:03:45.699Z,17.23
2023-03-07T05:06:15.248Z,18.23
2023-03-07T05:08:46.251Z,17.80
2023-03-07T05:11:13.719Z,17.70
2023-03-07T05:13:40.970Z,17.43
2023-03-07T05:16:08.435Z,19.07
2023-03-07T05:18:35.603Z,18.63
2023-03-07T05:21:03.406Z,19.20
2023-03-07T05:23:30.682Z,18.50
2023-03-07T05:25:57.939Z,20.50
2023-03-07T05:28:26.029Z,17.13
2023-03-07T05:30:53.698Z,21.83
2023-03-07T05:33:21.828Z,19.07
2023-03-07T05:35:49.260Z,19.20
2023-03-07T05:38:17.651Z,16.63
2023-03-07T05:40:44.896Z,17.00
2023-03-07T05:43:13.396Z,20.60
2023-03-07T05:45:40.672Z,19.40
2023-03-07T05:48:07.878Z,17.03
2023-03-07T05:50:35.062Z,17.13
2023-03-07T05:53:02.328Z,18.87
2023-03-07T05:55:31.191Z,17.10
2023-03-07T05:57:59.628Z,17.60
2023-03-07T06:00:26.998Z,17.43
2023-03-07T06:02:59.076Z,17.67
2023-03-07T06:05:26.273Z,18.10
2023-03-07T06:07:54.005Z,14.80
2023-03-07T06:10:21.234Z,16.10
2023-03-07T06:12:52.936Z,17.80
2023-03-07T06:15:20.727Z,18.27
2023-03-07T06:17:52.503Z,16.73
2023-03-07T06:20:22.867Z,17.17
2023-03-07T06:22:52.898Z,17.47
2023-03-07T06:25:21.621Z,17.87
2023-03-07T06:27:49.655Z,16.60
2023-03-07T06:30:17.130Z,16.23
2023-03-07T06:32:44.341Z,16.87
2023-03-07T06:35:11.640Z,14.53
2023-03-07T06:37:39.667Z,18.80
2023-03-07T06:40:09.284Z,18.67
2023-03-07T06:42:37.451Z,16.17
2023-03-07T06:45:05.899Z,16.90
2023-03-07T06:47:33.810Z,17.17
2023-03-07T06:50:02.266Z,16.57
2023-03-07T06:52:30.689Z,16.00
2023-03-07T06:54:58.973Z,16.60
2023-03-07T06:57:26.383Z,17.03
2023-03-07T06:59:53.575Z,17.70
2023-03-07T07:02:22.630Z,18.83
2023-03-07T07:04:49.879Z,17.40
2023-03-07T07:07:18.350Z,17.80
2023-03-07T07:09:45.884Z,18.70
2023-03-07T07:12:13.083Z,16.17
2023-03-07T07:14:40.278Z,16.20
2023-03-07T07:17:07.546Z,15.20
2023-03-07T07:19:34.796Z,17.40
2023-03-07T07:22:02.120Z,16.80
2023-03-07T07:24:29.648Z,15.27
2023-03-07T07:26:57.268Z,17.50
2023-03-07T07:29:24.518Z,15.77
2023-03-07T07:31:53.013Z,16.47
2023-03-07T07:34:22.994Z,16.00
2023-03-07T07:36:50.281Z,16.87
2023-03-07T07:39:18.561Z,16.37
2023-03-07T07:41:48.573Z,15.60
2023-03-07T07:44:17.275Z,14.27
2023-03-07T07:46:55.209Z,14.97
2023-03-07T07:49:22.402Z,16.40
2023-03-07T07:51:50.477Z,15.20
2023-03-07T07:54:17.639Z,15.00
2023-03-07T07:56:45.995Z,14.87
2023-03-07T07:59:13.765Z,14.13
2023-03-07T08:01:41.031Z,15.10
2023-03-07T08:04:08.194Z,15.00
2023-03-07T08:06:35.450Z,14.20
2023-03-07T08:09:05.734Z,14.60
2023-03-07T08:11:33.008Z,14.50
2023-03-07T08:14:00.292Z,14.73
2023-03-07T08:16:28.612Z,14.60
2023-03-07T08:18:56.864Z,14.00
2023-03-07T08:21:27.809Z,14.87
2023-03-07T08:23:55.330Z,13.80
2023-03-07T08:26:22.898Z,14.50
2023-03-07T08:28:50.104Z,13.40
2023-03-07T08:31:19.024Z,15.53
2023-03-07T08:33:48.982Z,14.43
2023-03-07T08:36:16.830Z,13.23
2023-03-07T08:38:44.088Z,13.83
2023-03-07T08:41:11.319Z,14.20
2023-03-07T08:43:39.327Z,14.63
2023-03-07T08:46:07.120Z,15.30
2023-03-07T08:48:34.668Z,13.67
2023-03-07T08:51:06.358Z,13.77
2023-03-07T08:53:33.594Z,12.53
2023-03-07T08:56:00.798Z,14.67
2023-03-07T08:58:28.194Z,12.93
2023-03-07T09:00:59.780Z,13.63
2023-03-07T09:03:26.973Z,12.13
2023-03-07T09:05:55.379Z,15.00
2023-03-07T09:08:22.589Z,13.43
2023-03-07T09:10:50.169Z,12.97
2023-03-07T09:13:18.539Z,12.27
2023-03-07T09:15:46.142Z,12.40
2023-03-07T09:18:13.374Z,12.60
2023-03-07T09:20:40.897Z,11.50
2023-03-07T09:23:08.061Z,12.03
2023-03-07T09:25:35.260Z,12.10
2023-03-07T09:28:02.511Z,11.73
2023-03-07T09:30:29.651Z,12.43
2023-03-07T09:32:56.982Z,11.43
2023-03-07T09:35:24.196Z,11.37
2023-03-07T09:37:51.379Z,11.70
2023-03-07T09:40:20.216Z,9.80
2023-03-07T09:43:06.156Z,10.73
2023-03-07T09:45:44.638Z,10.43
2023-03-07T09:48:18.280Z,10.80
2023-03-07T09:51:03.424Z,11.43
2023-03-07T09:53:50.278Z,10.07
2023-03-07T09:56:20.908Z,10.50
2023-03-07T09:58:50.170Z,10.47
2023-03-07T10:01:22.325Z,10.60
2023-03-07T10:04:01.583Z,10.37
2023-03-07T10:06:32.368Z,10.77
2023-03-07T10:09:00.428Z,10.80
2023-03-07T10:11:50.640Z,10.50
2023-03-07T10:14:34.008Z,10.57
2023-03-07T10:17:04.592Z,9.20
2023-03-07T10:19:45.253Z,9.63
2023-03-07T10:22:31.716Z,10.43
2023-03-07T10:24:58.907Z,11.37
2023-03-07T10:27:28.041Z,9.80
2023-03-07T10:29:56.710Z,10.70
2023-03-07T10:32:23.872Z,9.40
2023-03-07T10:34:54.620Z,12.57
2023-03-07T10:37:22.650Z,10.97
2023-03-07T10:39:54.080Z,10.60
2023-03-07T10:42:23.504Z,9.20
2023-03-07T10:44:52.338Z,10.60
2023-03-07T10:47:21.004Z,10.53
2023-03-07T10:49:50.180Z,11.07
2023-03-07T10:52:35.716Z,10.13
2023-03-07T10:55:23.680Z,10.10
2023-03-07T10:57:50.977Z,11.17
2023-03-07T11:00:18.718Z,10.07
2023-03-07T11:02:46.804Z,10.37
2023-03-07T11:05:31.163Z,8.50
2023-03-07T11:07:58.861Z,8.80
2023-03-07T11:10:34.921Z,9.13
2023-03-07T11:13:28.458Z,9.43
2023-03-07T11:16:17.333Z,10.03
2023-03-07T11:18:45.698Z,10.10
2023-03-07T11:21:30.248Z,8.80
2023-03-07T11:24:02.981Z,8.90
2023-03-07T11:26:31.378Z,8.53
2023-03-07T11:29:09.064Z,8.50
2023-03-07T11:31:40.594Z,9.10
2023-03-07T11:34:16.852Z,8.50
2023-03-07T11:36:44.691Z,8.23
2023-03-07T11:39:18.028Z,8.57
2023-03-07T11:41:52.106Z,8.90
2023-03-07T11:44:32.013Z,7.50
2023-03-07T11:47:07.593Z,7.47
2023-03-07T11:49:34.750Z,8.70
2023-03-07T11:52:12.097Z,7.80
2023-03-07T11:54:45.392Z,8.27
2023-03-07T11:57:20.974Z,8.23
2023-03-07T12:00:12.225Z,8.37
2023-03-07T12:03:02.555Z,8.57
2023-03-07T12:05:33.691Z,9.43
2023-03-07T12:08:21.493Z,7.70
2023-03-07T12:10:58.878Z,8.17
2023-03-07T12:13:26.047Z,8.77
2023-03-07T12:16:03.458Z,7.93
2023-03-07T12:18:46.135Z,8.20
2023-03-07T12:21:21.715Z,7.97
2023-03-07T12:23:55.496Z,9.00
2023-03-07T12:26:26.422Z,8.10
2023-03-07T12:29:01.574Z,8.73
2023-03-07T12:31:31.689Z,7.90
2023-03-07T12:34:07.922Z,8.23
2023-03-07T12:36:39.755Z,9.40
2023-03-07T12:39:19.727Z,9.20
2023-03-07T12:41:50.814Z,9.00
2023-03-07T12:44:30.346Z,10.93
2023-03-07T12:47:18.595Z,8.47
2023-03-07T12:50:01.016Z,9.53
2023-03-07T12:52:32.487Z,8.13
2023-03-07T12:55:04.943Z,8.07
2023-03-07T12:57:43.707Z,8.37
2023-03-07T13:00:13.778Z,7.97
2023-03-07T13:02:44.540Z,8.13
2023-03-07T13:05:21.182Z,8.00
2023-03-07T13:07:49.720Z,7.00
2023-03-07T13:10:21.716Z,9.43
2023-03-07T13:12:49.711Z,8.30
2023-03-07T13:15:20.873Z,8.40
2023-03-07T13:17:48.099Z,8.77
2023-03-07T13:20:15.343Z,8.00
2023-03-07T13:22:43.004Z,7.87
2023-03-07T13:25:33.309Z,8.60
2023-03-07T13:28:01.691Z,8.07
2023-03-07T13:30:35.024Z,9.17
2023-03-07T13:33:03.261Z,9.70
2023-03-07T13:35:39.088Z,8.47
2023-03-07T13:38:24.580Z,7.83
2023-03-07T13:40:53.583Z,7.50
2023-03-07T13:43:20.747Z,8.33
2023-03-07T13:45:52.808Z,8.57
2023-03-07T13:48:20.039Z,8.60
2023-03-07T13:50:50.304Z,9.77
2023-03-07T13:53:37.138Z,8.30
2023-03-07T13:56:15.372Z,9.60
2023-03-07T13:58:56.395Z,9.47
2023-03-07T14:01:25.561Z,9.10
2023-03-07T14:03:58.551Z,8.87
2023-03-07T14:06:37.676Z,8.50
2023-03-07T14:09:05.649Z,8.37
2023-03-07T14:11:48.776Z,8.90
2023-03-07T14:14:42.298Z,9.47
2023-03-07T14:17:28.561Z,8.20
2023-03-07T14:20:09.010Z,8.23
2023-03-07T14:22:41.506Z,8.20
2023-03-07T14:25:08.587Z,9.00
2023-03-07T14:27:54.318Z,8.73
2023-03-07T14:30:22.964Z,9.30
2023-03-07T14:32:50.700Z,9.60
2023-03-07T14:35:33.369Z,9.00
2023-03-07T14:38:00.603Z,9.23
2023-03-07T14:40:38.504Z,9.50
2023-03-07T14:43:16.034Z,9.90
2023-03-07T14:45:49.712Z,10.57
2023-03-07T14:48:28.779Z,9.63
2023-03-07T14:50:56.030Z,9.30
2023-03-07T14:53:26.057Z,9.70
2023-03-07T14:55:54.084Z,8.70
2023-03-07T14:58:25.291Z,9.13
2023-03-07T15:01:03.335Z,8.73
2023-03-07T15:03:30.924Z,8.37
2023-03-07T15:05:59.945Z,8.53
2023-03-07T15:08:31.472Z,8.37
2023-03-07T15:11:07.210Z,8.07
2023-03-07T15:14:00.886Z,8.80
2023-03-07T15:16:37.334Z,8.10
2023-03-07T15:19:10.387Z,8.13
2023-03-07T15:21:39.488Z,7.20
2023-03-07T15:24:06.804Z,7.10
2023-03-07T15:26:34.027Z,7.13
2023-03-07T15:29:02.212Z,6.83
2023-03-07T15:31:30.725Z,7.00
2023-03-07T15:34:12.176Z,7.27
2023-03-07T15:36:39.527Z,6.70
2023-03-07T15:39:25.579Z,6.43
2023-03-07T15:42:01.512Z,6.70
2023-03-07T15:44:29.755Z,6.50
2023-03-07T15:46:58.074Z,6.70
2023-03-07T15:49:25.920Z,6.70
2023-03-07T15:51:57.988Z,7.20
2023-03-07T15:54:34.994Z,7.50
2023-03-07T15:57:05.144Z,6.67
2023-03-07T15:59:35.121Z,7.03
2023-03-07T16:02:21.206Z,7.90
2023-03-07T16:04:51.145Z,7.93
2023-03-07T16:07:19.773Z,7.20
2023-03-07T16:09:46.963Z,7.87
2023-03-07T16:12:14.941Z,7.60
2023-03-07T16:14:42.189Z,7.50
2023-03-07T16:17:20.292Z,8.20
2023-03-07T16:19:47.491Z,6.97
2023-03-07T16:22:15.308Z,7.23
2023-03-07T16:24:42.645Z,7.67
2023-03-07T16:27:14.602Z,7.50
2023-03-07T16:29:43.135Z,8.00
2023-03-07T16:32:12.658Z,7.60
2023-03-07T16:34:40.056Z,8.00
2023-03-07T16:37:07.361Z,8.07
2023-03-07T16:39:34.683Z,8.80
2023-03-07T16:42:01.839Z,7.77
2023-03-07T16:44:29.806Z,8.23
2023-03-07T16:46:59.737Z,8.60
2023-03-07T16:49:27.199Z,8.37
2023-03-07T16:52:04.990Z,8.53
2023-03-07T16:54:32.696Z,9.30
2023-03-07T16:57:00.922Z,7.93
2023-03-07T16:59:35.524Z,9.90
2023-03-07T17:02:03.202Z,8.77
2023-03-07T17:04:30.389Z,8.80
2023-03-07T17:07:04.295Z,8.23
2023-03-07T17:09:33.315Z,9.63
2023-03-07T17:12:00.516Z,10.60
2023-03-07T17:14:27.752Z,10.23
2023-03-07T17:16:54.940Z,10.60
2023-03-07T17:19:26.404Z,10.30
2023-03-07T17:21:54.041Z,9.53
2023-03-07T17:24:21.307Z,10.77
2023-03-07T17:26:48.887Z,10.20
2023-03-07T17:29:21.107Z,10.47
2023-03-07T17:31:48.245Z,10.47
2023-03-07T17:34:20.158Z,11.40
2023-03-07T17:36:47.625Z,10.63
2023-03-07T17:39:14.850Z,10.73
2023-03-07T17:41:43.192Z,10.37
2023-03-07T17:44:10.422Z,9.53
2023-03-07T17:46:38.871Z,10.10
2023-03-07T17:49:06.184Z,10.77
2023-03-07T17:51:33.788Z,9.33
2023-03-07T17:54:01.164Z,10.83
2023-03-07T17:56:28.348Z,9.47
2023-03-07T17:59:01.276Z,10.43
2023-03-07T18:01:29.280Z,9.70
2023-03-07T18:03:57.288Z,8.87
2023-03-07T18:06:25.170Z,9.60
2023-03-07T18:08:53.357Z,9.33
2023-03-07T18:11:20.681Z,10.00
2023-03-07T18:13:47.918Z,10.00
2023-03-07T18:16:15.332Z,9.40
2023-03-07T18:18:57.693Z,8.80
2023-03-07T18:21:26.432Z,9.80
2023-03-07T18:23:53.741Z,9.37
2023-03-07T18:26:21.410Z,8.60
2023-03-07T18:28:50.136Z,10.27
2023-03-07T18:31:18.720Z,10.00
2023-03-07T18:33:46.084Z,9.27
2023-03-07T18:36:14.441Z,9.97
2023-03-07T18:38:41.656Z,9.67
2023-03-07T18:41:16.717Z,11.20
2023-03-07T18:43:44.021Z,9.07
2023-03-07T18:46:14.300Z,9.60
2023-03-07T18:48:41.639Z,8.67
2023-03-07T18:51:10.265Z,8.60
2023-03-07T18:53:38.709Z,9.17
2023-03-07T18:56:08.290Z,10.63
2023-03-07T18:58:35.554Z,9.60
2023-03-07T19:01:10.125Z,9.50
2023-03-07T19:03:37.385Z,11.03
2023-03-07T19:06:04.632Z,10.00
2023-03-07T19:08:31.998Z,9.70
2023-03-07T19:11:02.175Z,8.97
2023-03-07T19:13:29.441Z,9.23
2023-03-07T19:16:07.286Z,9.47
2023-03-07T19:18:35.236Z,9.23
2023-03-07T19:21:06.330Z,10.30
2023-03-07T19:23:34.592Z,10.10
2023-03-07T19:26:06.036Z,9.50
2023-03-07T19:28:33.420Z,10.60
2023-03-07T19:31:10.708Z,11.43
2023-03-07T19:33:38.125Z,10.60
2023-03-07T19:36:07.652Z,10.27
2023-03-07T19:38:35.591Z,11.70
2023-03-07T19:41:04.453Z,10.43
2023-03-07T19:43:31.755Z,11.33
2023-03-07T19:46:01.713Z,11.37
2023-03-07T19:48:31.961Z,9.80
2023-03-07T19:50:59.123Z,10.00
2023-03-07T19:53:26.255Z,10.27
2023-03-07T19:55:53.721Z,10.70
2023-03-07T19:58:20.885Z,9.37
2023-03-07T20:00:48.074Z,10.87
2023-03-07T20:03:16.213Z,10.23
2023-03-07T20:05:44.369Z,9.97
2023-03-07T20:08:11.582Z,10.67
2023-03-07T20:10:39.430Z,10.40
2023-03-07T20:13:07.153Z,10.67
2023-03-07T20:15:35.096Z,10.67
2023-03-07T20:18:05.671Z,11.00
2023-03-07T20:20:35.153Z,10.97
2023-03-07T20:23:02.381Z,10.70
2023-03-07T20:25:30.097Z,9.20
2023-03-07T20:27:57.709Z,9.40
2023-03-07T20:30:24.902Z,8.13
2023-03-07T20:32:52.099Z,8.20
2023-03-07T20:35:19.955Z,8.60
2023-03-07T20:37:47.161Z,7.17
2023-03-07T20:40:14.316Z,7.67
2023-03-07T20:42:41.520Z,7.03
2023-03-07T20:45:09.227Z,7.47
2023-03-07T20:47:38.330Z,8.83
2023-03-07T20:50:06.102Z,6.30
2023-03-07T20:52:33.500Z,6.80
2023-03-07T20:55:00.714Z,4.67
2023-03-07T20:57:27.856Z,5.03
2023-03-07T20:59:55.052Z,4.00
2023-03-07T21:02:22.352Z,4.00
2023-03-07T21:04:50.032Z,5.07
2023-03-07T21:07:17.181Z,3.33
2023-03-07T21:09:50.646Z,3.37
2023-03-07T21:12:18.455Z,3.57
2023-03-07T21:14:46.101Z,4.37
2023-03-07T21:17:14.555Z,3.10
2023-03-07T21:19:46.616Z,3.23
2023-03-07T21:22:13.776Z,3.37
2023-03-07T21:24:40.945Z,3.30
2023-03-07T21:27:08.106Z,2.97
2023-03-07T21:29:35.272Z,3.50
2023-03-07T21:32:02.446Z,3.10
2023-03-07T21:34:29.628Z,3.53
2023-03-07T21:36:56.912Z,6.27
2023-03-07T21:39:24.911Z,2.83
2023-03-07T21:41:52.208Z,2.97
2023-03-07T21:44:19.737Z,3.10
2023-03-07T21:46:48.349Z,2.13
2023-03-07T21:49:16.699Z,2.60
2023-03-07T21:51:43.832Z,2.77
2023-03-07T21:54:11.036Z,2.83
2023-03-07T21:56:38.168Z,3.07
2023-03-07T21:59:06.949Z,2.30
2023-03-07T22:01:34.260Z,2.80
2023-03-07T22:04:01.488Z,3.00
2023-03-07T22:06:28.916Z,2.43
2023-03-07T22:08:56.173Z,2.80
2023-03-07T22:11:24.649Z,9.23
2023-03-07T22:13:51.874Z,2.60
2023-03-07T22:16:20.554Z,2.57
2023-03-07T22:18:55.296Z,2.60
2023-03-07T22:21:24.791Z,2.93
2023-03-07T22:23:52.085Z,3.17
2023-03-07T22:26:22.091Z,3.63
2023-03-07T22:28:49.239Z,2.80
2023-03-07T22:31:16.692Z,3.60
2023-03-07T22:33:44.163Z,3.57
2023-03-07T22:36:13.578Z,4.03
2023-03-07T22:38:41.751Z,3.40
2023-03-07T22:41:11.115Z,3.00
2023-03-07T22:43:38.592Z,2.90
2023-03-07T22:46:09.237Z,3.80
2023-03-07T22:48:37.808Z,3.80
2023-03-07T22:51:05.076Z,2.90
2023-03-07T22:53:32.875Z,3.20
2023-03-07T22:56:00.429Z,3.13
2023-03-07T22:58:28.287Z,3.30
2023-03-07T23:00:55.440Z,3.23
2023-03-07T23:03:23.270Z,3.50
2023-03-07T23:05:50.594Z,3.10
2023-03-07T23:08:17.824Z,3.50
2023-03-07T23:10:44.983Z,3.70
2023-03-07T23:13:12.130Z,3.40
2023-03-07T23:15:42.219Z,3.13
2023-03-07T23:18:10.439Z,3.07
2023-03-07T23:20:39.791Z,3.13
2023-03-07T23:23:07.138Z,3.50
2023-03-07T23:25:34.532Z,3.80
2023-03-07T23:28:01.791Z,3.30
2023-03-07T23:30:28.986Z,3.70
2023-03-07T23:32:56.627Z,3.77
2023-03-07T23:35:24.003Z,3.60
2023-03-07T23:37:51.193Z,3.57
2023-03-07T23:40:18.394Z,3.47
2023-03-07T23:42:45.672Z,3.43
2023-03-07T23:45:13.205Z,3.77
2023-03-07T23:47:40.496Z,3.63
2023-03-07T23:50:08.107Z,3.47
2023-03-07T23:52:35.899Z,3.50
2023-03-07T23:55:03.022Z,3.60
2023-03-07T23:57:30.472Z,3.10
2023-03-07T23:59:57.620Z,2.67
